Time;durP1;ratioP1;P1;durP2;ratioP2;P2;SDS_P1;SDS_P2;PMS_P1;PMS_P2;Temp;Humidity;BMP_temperature;BMP_pressure;BME280_temperature;BME280_humidity;BME280_pressure;Samples;Min_cycle;Max_cycle;Signal;HPM_P1;HPM_P2
2021/09/28 00:01:44;;;;;;;26.75;19.30;;;;;;;17.14;nan;101928.34;4900666;29;20039;-48
2021/09/28 00:04:09;;;;;;;28.20;19.10;;;;;;;17.13;nan;101926.72;4900782;29;20201;-47
2021/09/28 00:06:35;;;;;;;29.23;21.23;;;;;;;17.15;nan;101924.56;4902703;29;20055;-48
2021/09/28 00:09:01;;;;;;;28.02;19.60;;;;;;;17.14;nan;101920.25;4898099;29;20039;-47
2021/09/28 00:11:27;;;;;;;33.13;21.63;;;;;;;17.14;nan;101927.53;4899961;29;20035;-48
2021/09/28 00:13:52;;;;;;;28.42;19.70;;;;;;;17.14;nan;101922.94;4897736;29;20036;-48
2021/09/28 00:16:19;;;;;;;27.58;19.83;;;;;;;17.14;nan;101925.66;4901095;29;20115;-47
2021/09/28 00:18:44;;;;;;;29.58;19.63;;;;;;;17.15;nan;101921.06;4903767;29;20471;-47
2021/09/28 00:21:10;;;;;;;28.42;19.50;;;;;;;17.15;nan;101926.47;4904033;29;20273;-48
2021/09/28 00:23:35;;;;;;;31.58;20.65;;;;;;;17.11;nan;101928.91;4899106;29;20028;-48
2021/09/28 00:26:01;;;;;;;29.92;20.77;;;;;;;17.11;nan;101923.47;4900965;29;20024;-48
2021/09/28 00:28:28;;;;;;;33.85;21.40;;;;;;;17.11;nan;101919.97;4900758;29;20546;-48
2021/09/28 00:30:56;;;;;;;29.10;20.50;;;;;;;17.05;nan;101926.41;4900283;29;20028;-47
2021/09/28 00:33:24;;;;;;;27.15;20.05;;;;;;;17.05;nan;101919.09;4903285;29;20053;-48
2021/09/28 00:35:49;;;;;;;31.30;19.63;;;;;;;17.04;nan;101922.06;4900629;29;20482;-48
2021/09/28 00:38:15;;;;;;;33.40;21.08;;;;;;;17.05;nan;101929.91;4897737;29;20020;-47
2021/09/28 00:40:40;;;;;;;30.02;21.17;;;;;;;17.03;nan;101923.97;4895721;29;20036;-49
2021/09/28 00:43:06;;;;;;;29.25;20.40;;;;;;;17.02;nan;101926.94;4901543;29;20099;-48
2021/09/28 00:45:31;;;;;;;30.80;21.05;;;;;;;16.98;nan;101923.94;4900193;29;20033;-50
2021/09/28 00:47:57;;;;;;;31.23;21.23;;;;;;;16.98;nan;101921.22;4899081;29;20061;-47
2021/09/28 00:50:22;;;;;;;31.98;21.92;;;;;;;16.92;nan;101911.47;4900738;29;20047;-48
2021/09/28 00:52:49;;;;;;;30.63;21.33;;;;;;;16.92;nan;101930.41;4901189;29;20040;-48
2021/09/28 00:55:16;;;;;;;28.23;20.20;;;;;;;16.91;nan;101931.50;4901443;29;20035;-48
2021/09/28 00:57:42;;;;;;;28.33;20.45;;;;;;;16.81;nan;101932.22;4903475;29;20039;-48
2021/09/28 01:00:09;;;;;;;31.63;20.75;;;;;;;16.68;nan;101929.97;4898278;29;20418;-47
2021/09/28 01:02:37;;;;;;;31.80;21.33;;;;;;;16.67;nan;101920.22;4900068;29;20025;-47
2021/09/28 01:05:03;;;;;;;29.63;21.65;;;;;;;16.68;nan;101915.63;4898300;29;20381;-47
2021/09/28 01:07:30;;;;;;;36.90;24.23;;;;;;;16.66;nan;101917.75;4899986;29;20079;-48
2021/09/28 01:09:57;;;;;;;33.50;22.08;;;;;;;16.62;nan;101917.44;4899559;29;20028;-48
2021/09/28 01:12:22;;;;;;;31.45;21.27;;;;;;;16.60;nan;101931.25;4904637;29;20074;-47
2021/09/28 01:14:48;;;;;;;28.08;20.92;;;;;;;16.60;nan;101923.13;4902112;29;20056;-49
2021/09/28 01:17:16;;;;;;;31.60;22.42;;;;;;;16.57;nan;101933.66;4901977;29;20028;-47
2021/09/28 01:19:42;;;;;;;31.55;21.65;;;;;;;16.51;nan;101931.97;4902765;29;20041;-47
2021/09/28 01:22:13;;;;;;;34.42;22.35;;;;;;;16.41;nan;101927.31;4904162;29;20491;-48
2021/09/28 01:24:40;;;;;;;30.20;20.88;;;;;;;16.43;nan;101935.16;4902819;29;20051;-47
2021/09/28 01:27:06;;;;;;;34.70;22.90;;;;;;;16.38;nan;101930.53;4894111;29;20064;-49
2021/09/28 01:29:31;;;;;;;37.00;22.92;;;;;;;16.38;nan;101935.94;4900198;29;20052;-47
2021/09/28 01:31:57;;;;;;;34.42;22.70;;;;;;;16.37;nan;101939.72;4899586;29;20115;-48
2021/09/28 01:34:23;;;;;;;35.13;21.65;;;;;;;16.37;nan;101937.03;4906840;29;20110;-48
2021/09/28 01:36:49;;;;;;;36.80;22.33;;;;;;;16.39;nan;101934.06;4904819;29;20562;-49
2021/09/28 01:39:16;;;;;;;31.73;22.50;;;;;;;16.39;nan;101934.88;4903815;29;20487;-47
2021/09/28 01:41:43;;;;;;;36.78;20.85;;;;;;;16.41;nan;101931.91;4906437;29;20087;-48
2021/09/28 01:44:13;;;;;;;31.67;22.13;;;;;;;16.43;nan;101930.56;4900856;29;20049;-48
2021/09/28 01:46:44;;;;;;;33.17;22.13;;;;;;;16.43;nan;101932.47;4905782;29;20166;-48
2021/09/28 01:49:11;;;;;;;31.70;21.75;;;;;;;16.44;nan;101936.78;4882012;29;20039;-48
2021/09/28 01:51:37;;;;;;;33.60;23.20;;;;;;;16.41;nan;101929.19;4903167;29;20063;-48
2021/09/28 01:54:04;;;;;;;36.70;24.10;;;;;;;16.39;nan;101929.47;4903009;29;20032;-47
2021/09/28 01:56:29;;;;;;;36.10;24.60;;;;;;;16.38;nan;101938.66;4901279;29;20028;-50
2021/09/28 01:58:59;;;;;;;37.67;25.60;;;;;;;16.35;nan;101932.94;4904628;29;20394;-47
2021/09/28 02:01:25;;;;;;;42.42;25.13;;;;;;;16.38;nan;101941.34;4904842;29;20032;-47
2021/09/28 02:03:51;;;;;;;38.05;24.98;;;;;;;16.36;nan;101939.97;4909595;29;20139;-47
2021/09/28 02:06:18;;;;;;;37.55;24.67;;;;;;;16.25;nan;101942.59;4905105;29;20114;-47
2021/09/28 02:08:43;;;;;;;41.45;24.70;;;;;;;16.28;nan;101949.38;4900989;29;20134;-47
2021/09/28 02:11:09;;;;;;;39.90;25.67;;;;;;;16.24;nan;101942.84;4889902;29;20478;-48
2021/09/28 02:13:34;;;;;;;37.78;25.33;;;;;;;16.28;nan;101938.53;4901178;29;20032;-47
2021/09/28 02:16:00;;;;;;;35.10;25.30;;;;;;;16.31;nan;101946.16;4903267;29;20372;-47
2021/09/28 02:18:25;;;;;;;38.08;25.63;;;;;;;16.28;nan;101943.97;4901010;29;20063;-47
2021/09/28 02:20:51;;;;;;;39.05;25.77;;;;;;;16.16;nan;101940.63;4905214;29;20633;-47
2021/09/28 02:23:17;;;;;;;37.97;25.23;;;;;;;16.09;nan;101945.41;4898698;29;20024;-47
2021/09/28 02:25:42;;;;;;;38.25;24.45;;;;;;;16.04;nan;101950.78;4899556;29;20050;-47
2021/09/28 02:28:07;;;;;;;43.78;27.30;;;;;;;16.14;nan;101945.44;4903366;29;20036;-48
2021/09/28 02:30:33;;;;;;;39.25;27.02;;;;;;;16.18;nan;101944.69;4903477;29;20376;-48
2021/09/28 02:32:59;;;;;;;43.85;26.27;;;;;;;16.21;nan;101946.06;4902764;29;20025;-47
2021/09/28 02:35:24;;;;;;;42.60;27.38;;;;;;;16.24;nan;101943.66;4900016;29;20595;-48
2021/09/28 02:37:50;;;;;;;40.95;25.95;;;;;;;16.27;nan;101943.13;4901013;29;20065;-47
2021/09/28 02:40:16;;;;;;;44.70;28.55;;;;;;;16.29;nan;101948.28;4900504;29;20033;-49
2021/09/28 02:42:43;;;;;;;44.25;27.48;;;;;;;16.23;nan;101943.91;4898788;29;20063;-47
2021/09/28 02:45:10;;;;;;;41.40;26.83;;;;;;;16.27;nan;101942.31;4902430;29;20032;-47
2021/09/28 02:47:35;;;;;;;42.55;27.20;;;;;;;16.25;nan;101941.78;4899866;29;20036;-48
2021/09/28 02:50:01;;;;;;;40.85;27.02;;;;;;;16.17;nan;101947.66;4900516;29;20437;-48
2021/09/28 02:52:27;;;;;;;39.72;25.95;;;;;;;16.18;nan;101935.78;4904103;29;20032;-47
2021/09/28 02:54:53;;;;;;;45.92;28.42;;;;;;;16.24;nan;101937.44;4905111;29;20036;-48
2021/09/28 02:57:18;;;;;;;40.53;27.25;;;;;;;16.22;nan;101935.00;4898669;29;21371;-49
2021/09/28 02:59:44;;;;;;;40.67;27.75;;;;;;;16.06;nan;101948.63;4901180;29;20066;-47
2021/09/28 03:02:09;;;;;;;47.72;28.40;;;;;;;16.04;nan;101948.88;4902796;29;20028;-47
2021/09/28 03:04:35;;;;;;;44.65;28.23;;;;;;;16.07;nan;101947.53;4904117;29;20395;-47
2021/09/28 03:07:01;;;;;;;46.47;29.08;;;;;;;16.01;nan;101949.41;4898701;29;20119;-48
2021/09/28 03:09:26;;;;;;;43.20;28.67;;;;;;;15.97;nan;101951.75;4900203;29;20028;-48
2021/09/28 03:11:52;;;;;;;47.92;29.83;;;;;;;15.99;nan;101957.75;4898004;29;20120;-47
2021/09/28 03:14:17;;;;;;;48.67;30.13;;;;;;;15.99;nan;101952.34;4899745;29;20047;-47
2021/09/28 03:16:43;;;;;;;43.88;29.33;;;;;;;16.03;nan;101952.66;4904185;29;20036;-47
2021/09/28 03:19:08;;;;;;;48.03;31.08;;;;;;;16.02;nan;101951.84;4885750;29;20031;-48
2021/09/28 03:21:34;;;;;;;43.75;27.65;;;;;;;16.04;nan;101948.88;4898736;29;20025;-47
2021/09/28 03:23:59;;;;;;;44.38;28.65;;;;;;;16.05;nan;101952.41;4898558;29;20178;-47
2021/09/28 03:26:25;;;;;;;41.83;28.42;;;;;;;16.04;nan;101950.78;4899137;29;20403;-47
2021/09/28 03:28:52;;;;;;;52.45;31.13;;;;;;;16.04;nan;101948.06;4899723;29;20143;-48
2021/09/28 03:31:18;;;;;;;50.42;30.33;;;;;;;16.07;nan;101947.53;4899930;29;20043;-47
2021/09/28 03:33:44;;;;;;;48.00;30.20;;;;;;;16.07;nan;101950.25;4904582;29;20043;-47
2021/09/28 03:36:09;;;;;;;46.42;30.42;;;;;;;16.08;nan;101951.88;4898380;29;20036;-48
2021/09/28 03:38:35;;;;;;;47.53;30.70;;;;;;;16.07;nan;101952.97;4900209;29;20023;-47
2021/09/28 03:41:00;;;;;;;50.80;30.17;;;;;;;16.05;nan;101955.91;4897901;29;20063;-47
2021/09/28 03:43:26;;;;;;;49.83;31.38;;;;;;;16.02;nan;101949.13;4902295;29;20059;-47
2021/09/28 03:45:53;;;;;;;50.70;32.63;;;;;;;16.00;nan;101956.69;4901969;29;20044;-48
2021/09/28 03:48:21;;;;;;;47.38;31.45;;;;;;;16.00;nan;101948.56;4903684;29;20036;-47
2021/09/28 03:50:48;;;;;;;41.53;28.15;;;;;;;16.07;nan;101952.97;4900348;29;20119;-47
2021/09/28 03:53:13;;;;;;;45.08;28.60;;;;;;;16.08;nan;101952.69;4899906;29;20036;-47
2021/09/28 03:55:39;;;;;;;49.58;30.00;;;;;;;16.04;nan;101948.88;4901861;29;20594;-48
2021/09/28 03:58:04;;;;;;;57.40;32.65;;;;;;;16.00;nan;101953.97;4907738;29;20023;-47
2021/09/28 04:00:31;;;;;;;53.85;32.35;;;;;;;15.95;nan;101950.41;4883593;29;20438;-48
2021/09/28 04:02:57;;;;;;;51.80;32.15;;;;;;;15.85;nan;101950.31;4903944;29;20031;-48
2021/09/28 04:05:23;;;;;;;55.97;34.03;;;;;;;15.84;nan;101946.78;4900100;29;20039;-47
2021/09/28 04:07:48;;;;;;;54.47;32.22;;;;;;;15.85;nan;101945.72;4901207;29;20475;-47
2021/09/28 04:10:14;;;;;;;49.45;31.88;;;;;;;15.88;nan;101944.38;4901017;29;20032;-47
2021/09/28 04:12:40;;;;;;;48.13;30.25;;;;;;;15.96;nan;101931.22;4902209;29;20035;-47
2021/09/28 04:15:07;;;;;;;53.65;35.13;;;;;;;15.93;nan;101950.66;4901472;29;20032;-47
2021/09/28 04:17:32;;;;;;;55.47;34.13;;;;;;;15.91;nan;101947.38;4900151;29;20021;-48
2021/09/28 04:19:58;;;;;;;55.90;33.65;;;;;;;15.88;nan;101950.59;4900792;29;20032;-47
2021/09/28 04:22:24;;;;;;;55.22;34.47;;;;;;;15.81;nan;101944.59;4894269;29;20118;-48
2021/09/28 04:24:50;;;;;;;58.85;34.88;;;;;;;15.79;nan;101952.09;4899816;29;20341;-47
2021/09/28 04:27:19;;;;;;;55.28;33.75;;;;;;;15.80;nan;101951.06;4898878;29;20335;-49
2021/09/28 04:29:45;;;;;;;55.17;32.35;;;;;;;15.83;nan;101955.97;4897251;29;20689;-47
2021/09/28 04:32:11;;;;;;;48.53;31.73;;;;;;;15.88;nan;101956.00;4898283;29;20471;-48
2021/09/28 04:34:38;;;;;;;56.80;35.22;;;;;;;15.87;nan;101948.97;4901366;29;20119;-49
2021/09/28 04:37:04;;;;;;;61.35;35.47;;;;;;;15.84;nan;101949.47;4903208;29;20111;-48
2021/09/28 04:39:31;;;;;;;61.63;36.10;;;;;;;15.83;nan;101949.75;4904800;29;20392;-48
2021/09/28 04:41:56;;;;;;;53.58;32.40;;;;;;;15.63;nan;101955.72;4902977;29;20039;-47
2021/09/28 04:44:22;;;;;;;50.28;32.63;;;;;;;15.67;nan;101967.66;4901420;29;20040;-47
2021/09/28 04:46:47;;;;;;;57.60;33.85;;;;;;;15.69;nan;101968.22;4898156;29;20028;-47
2021/09/28 04:49:13;;;;;;;57.95;34.60;;;;;;;15.60;nan;101967.03;4901586;29;20024;-48
2021/09/28 04:51:38;;;;;;;57.72;33.42;;;;;;;15.59;nan;101968.09;4905663;29;22188;-47
2021/09/28 04:54:04;;;;;;;61.22;36.33;;;;;;;15.49;nan;101978.75;4900690;29;20043;-48
2021/09/28 04:56:30;;;;;;;52.95;32.60;;;;;;;15.42;nan;101987.03;4903569;29;20077;-47
2021/09/28 04:58:55;;;;;;;45.90;30.58;;;;;;;15.56;nan;101984.78;4900487;29;20040;-48
2021/09/28 05:01:21;;;;;;;49.20;31.70;;;;;;;15.66;nan;101984.94;4903119;29;20044;-47
2021/09/28 05:03:47;;;;;;;52.47;31.67;;;;;;;15.70;nan;101989.59;4900150;29;20051;-48
2021/09/28 05:06:13;;;;;;;53.40;33.05;;;;;;;15.76;nan;102000.44;4904366;29;20028;-50
2021/09/28 05:08:39;;;;;;;55.88;33.40;;;;;;;15.78;nan;101998.31;4906576;29;20204;-49
2021/09/28 05:11:08;;;;;;;56.72;33.42;;;;;;;15.80;nan;101999.72;4905247;29;20184;-48
2021/09/28 05:13:34;;;;;;;55.72;33.40;;;;;;;15.79;nan;101998.06;4900260;29;20092;-48
2021/09/28 05:15:59;;;;;;;63.83;36.13;;;;;;;15.74;nan;101998.00;4902495;29;20036;-47
2021/09/28 05:18:25;;;;;;;51.40;32.17;;;;;;;15.85;nan;101999.75;4899022;29;20475;-48
2021/09/28 05:20:50;;;;;;;55.97;33.33;;;;;;;15.87;nan;101996.81;4896962;29;20033;-47
2021/09/28 05:23:16;;;;;;;52.72;33.63;;;;;;;15.88;nan;102007.38;4896754;29;20613;-49
2021/09/28 05:25:41;;;;;;;56.55;34.17;;;;;;;15.92;nan;102010.38;4900900;29;20097;-47
2021/09/28 05:28:07;;;;;;;53.13;35.13;;;;;;;15.97;nan;102007.72;4898244;29;20093;-47
2021/09/28 05:30:32;;;;;;;52.97;32.65;;;;;;;15.98;nan;102010.19;4899499;29;20509;-48
2021/09/28 05:32:58;;;;;;;57.92;34.08;;;;;;;15.96;nan;102022.31;4900819;29;20055;-47
2021/09/28 05:35:23;;;;;;;56.72;31.92;;;;;;;16.00;nan;102018.03;4903387;29;20060;-48
2021/09/28 05:37:49;;;;;;;46.60;29.25;;;;;;;16.04;nan;102024.56;4899409;29;20392;-47
2021/09/28 05:40:15;;;;;;;53.83;29.90;;;;;;;16.05;nan;102025.38;4899485;29;20021;-47
2021/09/28 05:42:40;;;;;;;45.58;27.60;;;;;;;16.07;nan;102023.25;4900079;29;20063;-47
2021/09/28 05:45:06;;;;;;;44.78;27.90;;;;;;;16.02;nan;102032.94;4899254;29;20033;-47
2021/09/28 05:47:32;;;;;;;46.58;26.80;;;;;;;16.05;nan;102031.63;4898533;29;20035;-47
2021/09/28 05:49:57;;;;;;;46.20;27.60;;;;;;;16.08;nan;102038.41;4900377;29;20032;-47
2021/09/28 05:52:23;;;;;;;41.78;25.45;;;;;;;16.09;nan;102038.13;4898507;29;20031;-48
2021/09/28 05:54:49;;;;;;;45.67;27.48;;;;;;;16.10;nan;102049.78;4900959;29;20487;-48
2021/09/28 05:57:15;;;;;;;41.45;25.10;;;;;;;16.13;nan;102041.97;4902316;29;20601;-48
2021/09/28 05:59:41;;;;;;;40.45;25.83;;;;;;;16.11;nan;102043.28;4898318;29;20075;-47
2021/09/28 06:02:07;;;;;;;37.08;24.58;;;;;;;16.06;nan;102045.94;4898666;29;20060;-47
2021/09/28 06:04:34;;;;;;;40.78;25.63;;;;;;;16.07;nan;102051.09;4899183;29;20423;-49
2021/09/28 06:07:00;;;;;;;38.05;24.50;;;;;;;16.15;nan;102057.94;4901974;29;20156;-47
2021/09/28 06:09:26;;;;;;;40.35;24.42;;;;;;;16.15;nan;102063.34;4879071;29;20114;-47
2021/09/28 06:11:52;;;;;;;42.15;24.40;;;;;;;16.19;nan;102069.91;4898497;29;20338;-47
2021/09/28 06:14:17;;;;;;;38.45;25.30;;;;;;;16.10;nan;102068.69;4899146;29;20040;-47
2021/09/28 06:16:43;;;;;;;38.42;24.40;;;;;;;16.14;nan;102069.81;4898234;29;20035;-47
2021/09/28 06:19:08;;;;;;;40.30;24.92;;;;;;;16.30;nan;102068.91;4899604;29;20043;-47
2021/09/28 06:21:34;;;;;;;36.28;22.88;;;;;;;16.40;nan;102073.63;4899543;29;20059;-48
2021/09/28 06:23:59;;;;;;;41.40;23.52;;;;;;;16.42;nan;102080.41;4896867;29;20396;-47
2021/09/28 06:26:25;;;;;;;35.83;22.17;;;;;;;16.44;nan;102080.97;4899678;29;20028;-47
2021/09/28 06:28:50;;;;;;;35.08;21.83;;;;;;;16.39;nan;102086.34;4897649;29;20107;-47
2021/09/28 06:31:16;;;;;;;34.90;22.58;;;;;;;16.44;nan;102089.09;4901279;29;20029;-47
2021/09/28 06:33:42;;;;;;;34.55;21.25;;;;;;;16.41;nan;102095.00;4898342;29;20329;-47
2021/09/28 06:36:07;;;;;;;35.03;21.13;;;;;;;16.41;nan;102091.50;4898941;29;20044;-47
2021/09/28 06:38:33;;;;;;;35.85;22.55;;;;;;;16.36;nan;102094.97;4899384;29;20744;-48
2021/09/28 06:40:58;;;;;;;31.23;20.70;;;;;;;16.42;nan;102096.66;4898206;29;20040;-47
2021/09/28 06:43:24;;;;;;;31.33;21.00;;;;;;;16.40;nan;102108.78;4897279;29;20148;-48
2021/09/28 06:45:50;;;;;;;32.17;20.58;;;;;;;16.42;nan;102107.47;4899184;29;20546;-47
2021/09/28 06:48:18;;;;;;;32.08;19.60;;;;;;;16.40;nan;102108.78;4897756;29;20087;-47
2021/09/28 06:50:44;;;;;;;35.08;22.02;;;;;;;16.47;nan;102109.41;4899269;29;20036;-47
2021/09/28 06:53:09;;;;;;;32.55;19.75;;;;;;;16.50;nan;102119.72;4907192;29;20040;-47
2021/09/28 06:55:37;;;;;;;30.00;18.90;;;;;;;16.53;nan;102122.75;4908340;29;20036;-47
2021/09/28 06:58:03;;;;;;;28.45;19.38;;;;;;;16.53;nan;102121.94;4905873;29;20027;-47
2021/09/28 07:00:30;;;;;;;29.73;18.77;;;;;;;16.62;nan;102128.50;4900508;29;20036;-47
2021/09/28 07:02:56;;;;;;;30.50;18.65;;;;;;;16.76;nan;102131.66;4905200;29;20028;-47
2021/09/28 07:05:21;;;;;;;29.80;18.52;;;;;;;16.77;nan;102125.19;4904589;29;20059;-48
2021/09/28 07:07:47;;;;;;;26.80;17.35;;;;;;;16.96;nan;102131.84;4907396;29;21100;-47
2021/09/28 07:10:12;;;;;;;27.02;16.38;;;;;;;16.87;nan;102131.50;4903850;29;20052;-48
2021/09/28 07:12:38;;;;;;;26.65;17.10;;;;;;;16.98;nan;102132.41;4904689;29;20040;-49
2021/09/28 07:15:07;;;;;;;25.73;16.13;;;;;;;17.01;nan;102145.44;4906273;29;20031;-47
2021/09/28 07:17:33;;;;;;;26.20;16.75;;;;;;;16.82;nan;102141.47;4901380;29;20055;-49
2021/09/28 07:19:58;;;;;;;43.50;24.75;;;;;;;16.86;nan;102143.38;4899943;29;20059;-47
2021/09/28 07:22:26;;;;;;;58.33;30.65;;;;;;;16.73;nan;102151.13;4906399;29;20082;-48
2021/09/28 07:24:52;;;;;;;39.00;22.75;;;;;;;16.74;nan;102153.56;4908136;29;20131;-48
2021/09/28 07:27:18;;;;;;;32.83;17.80;;;;;;;16.75;nan;102154.38;4901456;29;20119;-47
2021/09/28 07:29:43;;;;;;;21.15;12.38;;;;;;;16.82;nan;102161.22;4902155;29;21924;-47
2021/09/28 07:32:08;;;;;;;35.03;16.23;;;;;;;16.76;nan;102161.44;4883467;29;20471;-47
2021/09/28 07:34:34;;;;;;;75.45;33.97;;;;;;;16.65;nan;102165.88;4896135;29;20030;-48
2021/09/28 07:37:00;;;;;;;52.28;25.20;;;;;;;16.70;nan;102165.16;4879664;29;20036;-48
2021/09/28 07:39:25;;;;;;;49.83;24.17;;;;;;;16.72;nan;102171.16;4911730;29;20055;-47
2021/09/28 07:41:51;;;;;;;41.22;20.40;;;;;;;16.72;nan;102169.25;4902461;29;20036;-47
2021/09/28 07:44:17;;;;;;;34.08;16.40;;;;;;;16.63;nan;102176.97;4889714;29;20495;-48
2021/09/28 07:46:43;;;;;;;26.50;9.43;;;;;;;16.68;nan;102180.81;4897044;29;20177;-47
2021/09/28 07:49:08;;;;;;;26.40;12.43;;;;;;;16.74;nan;102186.06;4900185;29;20035;-48
2021/09/28 07:51:34;;;;;;;38.25;18.85;;;;;;;16.69;nan;102187.88;4898805;29;20073;-48
2021/09/28 07:53:59;;;;;;;23.95;9.40;;;;;;;16.67;nan;102192.72;4901560;29;20032;-47
2021/09/28 07:56:27;;;;;;;13.52;5.78;;;;;;;16.59;nan;102205.59;4902630;29;20039;-47
2021/09/28 07:58:52;;;;;;;11.80;3.83;;;;;;;16.44;nan;102208.13;4899563;29;20066;-47
2021/09/28 08:01:18;;;;;;;7.30;2.53;;;;;;;16.29;nan;102210.63;4899826;29;20483;-47
2021/09/28 08:03:44;;;;;;;11.38;2.45;;;;;;;16.27;nan;102208.19;4900786;29;20032;-47
2021/09/28 08:06:10;;;;;;;8.63;3.55;;;;;;;16.30;nan;102217.66;4901018;29;20021;-50
2021/09/28 08:08:35;;;;;;;14.13;5.07;;;;;;;16.35;nan;102214.25;4900215;29;20506;-48
2021/09/28 08:11:01;;;;;;;12.88;4.35;;;;;;;16.39;nan;102215.38;4900598;29;20036;-48
2021/09/28 08:13:27;;;;;;;13.18;3.83;;;;;;;16.45;nan;102219.75;4902546;29;20032;-47
2021/09/28 08:15:54;;;;;;;10.48;3.17;;;;;;;16.43;nan;102224.59;4901678;29;20043;-48
2021/09/28 08:18:19;;;;;;;11.00;4.40;;;;;;;16.34;nan;102224.25;4901948;29;20024;-48
2021/09/28 08:20:46;;;;;;;9.40;3.35;;;;;;;16.44;nan;102224.34;4899405;29;20028;-48
2021/09/28 08:23:12;;;;;;;11.25;4.13;;;;;;;16.46;nan;102224.91;4900077;29;20380;-48
2021/09/28 08:31:02;;;;;;;8.20;2.92;;;;;;;16.57;nan;102234.81;4902800;29;20043;-47
2021/09/28 08:33:29;;;;;;;8.75;2.95;;;;;;;16.63;nan;102238.38;4901637;29;20031;-48
2021/09/28 08:35:55;;;;;;;7.07;2.72;;;;;;;16.68;nan;102243.88;4891744;29;20588;-47
2021/09/28 08:38:21;;;;;;;10.98;3.03;;;;;;;16.74;nan;102236.66;4902485;29;20031;-47
2021/09/28 08:40:46;;;;;;;8.15;3.33;;;;;;;16.73;nan;102238.53;4901707;29;20113;-48
2021/09/28 08:43:11;;;;;;;9.63;2.92;;;;;;;16.85;nan;102246.50;4906490;29;20028;-48
2021/09/28 08:45:37;;;;;;;6.03;3.03;;;;;;;16.86;nan;102248.97;4906551;29;20032;-48
2021/09/28 08:48:03;;;;;;;9.10;2.85;;;;;;;16.84;nan;102248.41;4903875;29;20075;-47
2021/09/28 08:50:28;;;;;;;8.75;2.55;;;;;;;16.85;nan;102255.44;4906630;29;20445;-47
2021/09/28 08:52:54;;;;;;;11.20;2.85;;;;;;;16.78;nan;102254.03;4903489;29;20150;-48
2021/09/28 08:55:23;;;;;;;10.05;2.60;;;;;;;16.76;nan;102262.41;4903641;29;20522;-49
2021/09/28 08:57:50;;;;;;;5.78;2.47;;;;;;;16.58;nan;102270.81;4892809;29;20333;-47
2021/09/28 09:00:16;;;;;;;7.03;3.13;;;;;;;16.50;nan;102263.91;4907561;29;20020;-48
2021/09/28 09:02:44;;;;;;;7.15;2.20;;;;;;;16.43;nan;102268.72;4906537;29;20035;-47
2021/09/28 09:05:13;;;;;;;9.38;2.78;;;;;;;16.35;nan;102271.84;4908921;29;20024;-47
2021/09/28 09:07:39;;;;;;;5.95;2.22;;;;;;;16.29;nan;102272.84;4901542;29;20479;-47
2021/09/28 09:10:05;;;;;;;8.55;2.67;;;;;;;16.24;nan;102275.47;4894367;29;20043;-48
2021/09/28 09:12:33;;;;;;;7.57;2.65;;;;;;;16.25;nan;102275.22;4905524;29;20036;-48
2021/09/28 09:15:18;;;;;;;10.13;2.85;;;;;;;16.18;nan;102279.19;4902177;29;20085;-49
2021/09/28 09:17:49;;;;;;;6.95;2.42;;;;;;;16.32;nan;102273.16;4905665;29;20035;-48
2021/09/28 09:20:33;;;;;;;9.60;2.95;;;;;;;16.19;nan;102281.63;4891031;29;20030;-47
2021/09/28 09:23:27;;;;;;;7.20;2.70;;;;;;;16.33;nan;102282.06;4905263;29;20438;-48
2021/09/28 09:26:10;;;;;;;10.95;3.30;;;;;;;16.42;nan;102286.00;4901158;29;20052;-48
2021/09/28 09:28:45;;;;;;;9.95;3.10;;;;;;;16.59;nan;102286.78;4905417;29;20027;-48
2021/09/28 09:31:31;;;;;;;13.05;3.05;;;;;;;16.38;nan;102292.19;4909791;29;20503;-48
2021/09/28 09:34:17;;;;;;;12.65;3.97;;;;;;;16.37;nan;102294.06;4903961;29;20067;-47
2021/09/28 09:36:52;;;;;;;8.43;3.08;;;;;;;16.36;nan;102291.59;4904790;29;20107;-49
2021/09/28 09:39:18;;;;;;;12.27;3.63;;;;;;;16.45;nan;102295.50;4905865;29;20029;-48
2021/09/28 09:41:43;;;;;;;7.15;2.97;;;;;;;16.70;nan;102284.25;4905113;29;20047;-48
2021/09/28 09:44:12;;;;;;;9.73;3.10;;;;;;;16.85;nan;102284.41;4904893;29;20546;-47
2021/09/28 09:46:50;;;;;;;7.38;3.05;;;;;;;16.89;nan;102289.09;4906824;29;20083;-47
2021/09/28 09:49:27;;;;;;;6.10;2.42;;;;;;;16.60;nan;102291.13;4906922;29;20052;-48
2021/09/28 09:51:54;;;;;;;7.00;2.80;;;;;;;16.69;nan;102290.69;4899630;29;20418;-47
2021/09/28 09:54:36;;;;;;;10.18;3.00;;;;;;;16.75;nan;102289.72;4905452;29;20059;-48
2021/09/28 09:57:04;;;;;;;7.88;2.90;;;;;;;16.76;nan;102286.75;4902673;29;20118;-50
2021/09/28 09:59:30;;;;;;;7.07;3.00;;;;;;;16.82;nan;102288.44;4905991;29;20055;-48
2021/09/28 10:01:56;;;;;;;8.60;3.03;;;;;;;16.73;nan;102297.28;4902389;29;20110;-47
2021/09/28 10:04:23;;;;;;;11.00;3.13;;;;;;;16.69;nan;102302.34;4904669;29;20046;-47
2021/09/28 10:06:49;;;;;;;8.15;3.05;;;;;;;16.84;nan;102305.25;4906213;29;20044;-48
2021/09/28 10:09:27;;;;;;;8.43;3.08;;;;;;;16.61;nan;102303.56;4904750;29;20032;-48
2021/09/28 10:11:56;;;;;;;9.38;3.25;;;;;;;16.99;nan;102301.91;4904166;29;20739;-49
2021/09/28 10:14:40;;;;;;;10.63;3.45;;;;;;;17.27;nan;102295.47;4911116;29;20115;-48
2021/09/28 10:17:26;;;;;;;10.03;2.83;;;;;;;17.53;nan;102291.09;4903362;29;20127;-47
2021/09/28 10:19:53;;;;;;;7.20;2.92;;;;;;;17.63;nan;102301.22;4905150;29;20651;-47
2021/09/28 10:22:58;;;;;;;10.40;3.88;;;;;;;17.47;nan;102302.97;4900239;29;20487;-48
2021/09/28 10:25:35;;;;;;;11.00;3.17;;;;;;;17.22;nan;102307.03;4875049;29;20047;-49
2021/09/28 10:28:03;;;;;;;8.65;3.33;;;;;;;17.25;nan;102299.50;4877075;29;20128;-48
2021/09/28 10:30:29;;;;;;;7.68;2.80;;;;;;;17.35;nan;102303.13;4892748;29;20051;-47
2021/09/28 10:32:56;;;;;;;8.25;3.15;;;;;;;17.35;nan;102299.59;4900075;29;20047;-48
2021/09/28 10:35:22;;;;;;;8.43;2.85;;;;;;;17.06;nan;102301.75;4903972;29;20399;-48
2021/09/28 10:37:50;;;;;;;7.90;3.22;;;;;;;17.15;nan;102300.19;4906403;29;20020;-49
2021/09/28 10:40:19;;;;;;;7.53;2.55;;;;;;;17.09;nan;102303.94;4906271;29;20024;-48
2021/09/28 10:43:24;;;;;;;8.48;2.95;;;;;;;16.83;nan;102313.63;4902185;29;20032;-49
2021/09/28 10:45:50;;;;;;;10.07;3.17;;;;;;;16.73;nan;102314.34;4902890;29;20087;-48
2021/09/28 10:48:21;;;;;;;7.75;3.33;;;;;;;16.77;nan;102309.22;4901015;29;21660;-48
2021/09/28 10:50:47;;;;;;;10.73;3.20;;;;;;;16.81;nan;102315.75;4902922;29;20032;-49
2021/09/28 10:53:18;;;;;;;10.35;3.17;;;;;;;16.82;nan;102310.09;4891929;29;20040;-48
2021/09/28 10:55:57;;;;;;;12.82;2.95;;;;;;;16.78;nan;102310.88;4900262;29;20250;-48
2021/09/28 10:58:24;;;;;;;6.60;2.58;;;;;;;16.75;nan;102311.38;4902686;29;20143;-48
2021/09/28 11:00:49;;;;;;;10.98;3.17;;;;;;;16.57;nan;102318.69;4901109;29;20032;-50
2021/09/28 11:03:17;;;;;;;8.48;3.03;;;;;;;16.35;nan;102328.66;4900434;29;20042;-48
2021/09/28 11:05:54;;;;;;;6.40;2.70;;;;;;;16.15;nan;102331.84;4900456;29;20645;-48
2021/09/28 11:08:22;;;;;;;6.93;2.50;;;;;;;15.91;nan;102328.50;4901552;29;20032;-49
2021/09/28 11:10:55;;;;;;;8.18;2.33;;;;;;;15.72;nan;102327.09;4905025;29;20407;-48
2021/09/28 11:13:28;;;;;;;9.63;2.40;;;;;;;15.93;nan;102326.38;4903857;29;20063;-47
2021/09/28 11:16:01;;;;;;;5.78;2.30;;;;;;;16.22;nan;102323.59;4897385;29;20036;-48
2021/09/28 11:18:27;;;;;;;5.93;2.00;;;;;;;16.11;nan;102335.28;4902014;29;20361;-47
2021/09/28 11:20:52;;;;;;;5.35;2.00;;;;;;;15.74;nan;102322.25;4899681;29;20032;-49
2021/09/28 11:23:18;;;;;;;7.72;1.30;;;;;;;15.83;nan;102331.63;4892400;29;20036;-48
2021/09/28 11:25:49;;;;;;;5.10;1.73;;;;;;;15.57;nan;102329.50;4903487;29;20031;-47
2021/09/28 11:28:17;;;;;;;3.22;1.25;;;;;;;15.66;nan;102325.38;4905997;29;20423;-47
2021/09/28 11:31:03;;;;;;;4.55;1.25;;;;;;;15.61;nan;102322.56;4905901;29;20175;-48
2021/09/28 11:33:36;;;;;;;4.55;1.40;;;;;;;15.67;nan;102322.44;4903550;29;20055;-47
2021/09/28 11:36:05;;;;;;;6.50;2.08;;;;;;;15.70;nan;102331.94;4906001;29;20031;-48